Agness, OR

5:51 AM PDT on October 31, 2014 (GMT -0700)
Weather Hawk | Change Station
CLOSE
Current Station
Personal Weather Station
Location: Gold Beach, OR
Elevation: 128 ft
Nearby Weather Stations

Elev 128 ft 42.53 °N, 124.39 °W | Updated 4 seconds ago

Rain
Rain
52.3 °F
Feels Like 52.3 °F
N
0.0
Wind Variable Wind from SW
Gusts 0.7 mph

Today
High -- | Low -- °F
--% Chance of Precip.
Yesterday
High -- | Low -- °F
Precip. -- in
7:48 AM 6:10 PM
First Quarter, 55% visible
Pressure 29.86 in
Visibility 4.0 miles
Clouds Mostly Cloudy 100 ft
Overcast 5000 ft
Dew Point 46 °F
Humidity 79%
Rainfall 0.00 in
Snow Depth Not available.
UV 0 out of 12
Pollen .40 out of 12
Air Quality Not available.
Flu Activity Not available.
SPECI KBOK 311233Z AUTO VRB04KT 4SM -RA BR BKN001 OVC050 12/12 A2986 RMK AO2 P0003

More Conditions Fewer Conditions

Pressure 29.86 in
Visibility 4.0 miles
Clouds Mostly Cloudy 100 ft
Overcast 5000 ft
Dew Point 46 °F
Humidity 79%
Rainfall 0.00 in
Snow Depth Not available.
UV 0 out of 12
Pollen .40 out of 12
Air Quality Not available.
Flu Activity Not available.
SPECI KBOK 311233Z AUTO VRB04KT 4SM -RA BR BKN001 OVC050 12/12 A2986 RMK AO2 P0003

More Conditions Fewer Conditions

10-Day Weather Forecast

Almanac

Astronomy

Oct. 31, 2014 Rise Set
Actual Time
Civil Twilight
Nautical Twilight
Astronomical Twilight
Moon
Length of Visible Light
Length of Day
Tomorrow will be .
, % of the Moon is Illuminated

Today's Extremes

State Highs State Lows

Community

WunderPhotos

Upload Photos

1,766,593 photos uploaded!

WunderBlogs® & News

Nearby

Air Quality

  Air Quality AQ Index Pollutant
Not available.

Snow Depth

Station Depth Elevation

Earthquake Activity

City Distance Mag. Time & Date
Minimum magnitude displayed is 2.5.

Coastal Water Temperatures

Place Temperature

Nearby Weather Stations